sensor_id;sensor_type;location;lat;lon;timestamp;P1;durP1;ratioP1;P2;durP2;ratioP2
63770;SDS011;60282;43.862;18.430;2022-08-01T00:00:23;5.97;;;2.60;;
63770;SDS011;60282;43.862;18.430;2022-08-01T00:02:49;5.55;;;3.15;;
63770;SDS011;60282;43.862;18.430;2022-08-01T00:05:15;4.38;;;2.10;;
63770;SDS011;60282;43.862;18.430;2022-08-01T00:07:41;6.70;;;2.50;;
63770;SDS011;60282;43.862;18.430;2022-08-01T00:10:09;5.93;;;2.42;;
63770;SDS011;60282;43.862;18.430;2022-08-01T00:12:37;5.57;;;2.90;;
63770;SDS011;60282;43.862;18.430;2022-08-01T00:15:06;6.13;;;2.67;;
63770;SDS011;60282;43.862;18.430;2022-08-01T00:17:33;7.80;;;2.95;;
63770;SDS011;60282;43.862;18.430;2022-08-01T00:20:00;7.38;;;2.72;;
63770;SDS011;60282;43.862;18.430;2022-08-01T00:22:27;6.72;;;3.08;;
63770;SDS011;60282;43.862;18.430;2022-08-01T00:24:53;5.28;;;2.50;;
63770;SDS011;60282;43.862;18.430;2022-08-01T00:27:19;5.72;;;2.60;;
63770;SDS011;60282;43.862;18.430;2022-08-01T00:29:45;7.00;;;2.83;;
63770;SDS011;60282;43.862;18.430;2022-08-01T00:32:11;5.38;;;2.60;;
63770;SDS011;60282;43.862;18.430;2022-08-01T00:34:37;5.18;;;2.40;;
63770;SDS011;60282;43.862;18.430;2022-08-01T00:37:02;6.72;;;2.63;;
63770;SDS011;60282;43.862;18.430;2022-08-01T00:39:28;6.68;;;2.85;;
63770;SDS011;60282;43.862;18.430;2022-08-01T00:41:54;6.93;;;2.65;;
63770;SDS011;60282;43.862;18.430;2022-08-01T00:44:20;7.68;;;3.05;;
63770;SDS011;60282;43.862;18.430;2022-08-01T00:46:45;6.05;;;3.38;;
63770;SDS011;60282;43.862;18.430;2022-08-01T00:49:11;5.20;;;2.60;;
63770;SDS011;60282;43.862;18.430;2022-08-01T00:51:38;7.40;;;2.90;;
63770;SDS011;60282;43.862;18.430;2022-08-01T00:54:04;6.00;;;2.83;;
63770;SDS011;60282;43.862;18.430;2022-08-01T00:56:30;6.80;;;2.80;;
63770;SDS011;60282;43.862;18.430;2022-08-01T00:58:56;6.00;;;2.65;;
63770;SDS011;60282;43.862;18.430;2022-08-01T01:01:22;5.10;;;2.45;;
63770;SDS011;60282;43.862;18.430;2022-08-01T01:03:49;5.43;;;2.42;;
63770;SDS011;60282;43.862;18.430;2022-08-01T01:17:45;5.30;;;2.53;;
63770;SDS011;60282;43.862;18.430;2022-08-01T01:20:24;6.53;;;2.72;;
63770;SDS011;60282;43.862;18.430;2022-08-01T01:28:13;5.55;;;2.47;;
63770;SDS011;60282;43.862;18.430;2022-08-01T01:30:46;10.02;;;3.17;;
63770;SDS011;60282;43.862;18.430;2022-08-01T01:33:16;5.75;;;2.83;;
63770;SDS011;60282;43.862;18.430;2022-08-01T01:35:46;5.07;;;2.67;;
63770;SDS011;60282;43.862;18.430;2022-08-01T01:38:16;6.32;;;3.15;;
63770;SDS011;60282;43.862;18.430;2022-08-01T01:40:45;5.15;;;2.50;;
63770;SDS011;60282;43.862;18.430;2022-08-01T01:43:12;5.57;;;2.20;;
63770;SDS011;60282;43.862;18.430;2022-08-01T01:45:41;7.28;;;2.75;;
63770;SDS011;60282;43.862;18.430;2022-08-01T01:48:09;7.45;;;2.47;;
63770;SDS011;60282;43.862;18.430;2022-08-01T01:50:37;6.97;;;3.08;;
63770;SDS011;60282;43.862;18.430;2022-08-01T01:53:04;5.85;;;2.80;;
63770;SDS011;60282;43.862;18.430;2022-08-01T01:55:31;4.78;;;2.65;;
63770;SDS011;60282;43.862;18.430;2022-08-01T01:57:59;6.28;;;2.88;;
63770;SDS011;60282;43.862;18.430;2022-08-01T02:00:25;7.85;;;3.28;;
63770;SDS011;60282;43.862;18.430;2022-08-01T02:02:53;5.88;;;2.58;;
63770;SDS011;60282;43.862;18.430;2022-08-01T02:05:21;5.55;;;2.70;;
63770;SDS011;60282;43.862;18.430;2022-08-01T02:07:49;4.85;;;2.35;;
63770;SDS011;60282;43.862;18.430;2022-08-01T02:10:17;8.23;;;2.88;;
63770;SDS011;60282;43.862;18.430;2022-08-01T02:12:47;5.13;;;2.60;;
63770;SDS011;60282;43.862;18.430;2022-08-01T02:15:14;7.97;;;3.10;;
63770;SDS011;60282;43.862;18.430;2022-08-01T02:17:47;6.25;;;3.00;;
63770;SDS011;60282;43.862;18.430;2022-08-01T02:20:14;6.95;;;2.95;;
63770;SDS011;60282;43.862;18.430;2022-08-01T02:22:46;6.47;;;3.08;;
63770;SDS011;60282;43.862;18.430;2022-08-01T02:25:24;4.68;;;2.20;;
63770;SDS011;60282;43.862;18.430;2022-08-01T02:30:32;7.00;;;3.42;;
63770;SDS011;60282;43.862;18.430;2022-08-01T02:35:43;7.57;;;2.90;;
63770;SDS011;60282;43.862;18.430;2022-08-01T02:40:44;5.93;;;2.40;;
63770;SDS011;60282;43.862;18.430;2022-08-01T02:43:17;5.90;;;2.80;;
63770;SDS011;60282;43.862;18.430;2022-08-01T02:45:49;7.07;;;2.55;;
63770;SDS011;60282;43.862;18.430;2022-08-01T02:48:23;4.80;;;2.47;;
63770;SDS011;60282;43.862;18.430;2022-08-01T02:50:52;5.45;;;2.65;;
63770;SDS011;60282;43.862;18.430;2022-08-01T02:53:23;8.55;;;3.00;;
63770;SDS011;60282;43.862;18.430;2022-08-01T02:55:51;5.60;;;2.70;;
63770;SDS011;60282;43.862;18.430;2022-08-01T02:58:22;6.82;;;3.03;;
63770;SDS011;60282;43.862;18.430;2022-08-01T03:00:49;5.57;;;2.50;;
63770;SDS011;60282;43.862;18.430;2022-08-01T03:03:15;6.70;;;3.20;;
63770;SDS011;60282;43.862;18.430;2022-08-01T03:05:46;4.32;;;2.65;;
63770;SDS011;60282;43.862;18.430;2022-08-01T03:08:13;4.85;;;2.47;;
63770;SDS011;60282;43.862;18.430;2022-08-01T03:10:42;8.30;;;3.03;;
63770;SDS011;60282;43.862;18.430;2022-08-01T03:13:10;4.60;;;2.30;;
63770;SDS011;60282;43.862;18.430;2022-08-01T03:15:38;5.38;;;2.40;;
63770;SDS011;60282;43.862;18.430;2022-08-01T03:18:06;5.53;;;2.90;;
63770;SDS011;60282;43.862;18.430;2022-08-01T03:20:34;7.25;;;3.25;;
63770;SDS011;60282;43.862;18.430;2022-08-01T03:23:01;6.53;;;2.97;;
63770;SDS011;60282;43.862;18.430;2022-08-01T03:25:30;6.93;;;3.45;;
63770;SDS011;60282;43.862;18.430;2022-08-01T03:27:59;8.77;;;3.55;;
63770;SDS011;60282;43.862;18.430;2022-08-01T03:30:28;6.57;;;3.08;;
63770;SDS011;60282;43.862;18.430;2022-08-01T03:32:56;8.45;;;3.33;;
63770;SDS011;60282;43.862;18.430;2022-08-01T03:35:23;6.53;;;2.78;;
63770;SDS011;60282;43.862;18.430;2022-08-01T03:37:53;7.38;;;3.08;;
63770;SDS011;60282;43.862;18.430;2022-08-01T03:40:24;5.82;;;2.97;;
63770;SDS011;60282;43.862;18.430;2022-08-01T03:42:59;6.28;;;2.88;;
63770;SDS011;60282;43.862;18.430;2022-08-01T03:45:31;6.57;;;2.85;;
63770;SDS011;60282;43.862;18.430;2022-08-01T03:48:10;9.73;;;3.45;;
63770;SDS011;60282;43.862;18.430;2022-08-01T03:50:41;6.22;;;3.00;;
63770;SDS011;60282;43.862;18.430;2022-08-01T03:53:10;7.43;;;3.38;;
63770;SDS011;60282;43.862;18.430;2022-08-01T03:55:37;6.75;;;2.80;;
63770;SDS011;60282;43.862;18.430;2022-08-01T03:58:05;4.50;;;2.50;;
63770;SDS011;60282;43.862;18.430;2022-08-01T04:00:31;5.72;;;2.60;;
63770;SDS011;60282;43.862;18.430;2022-08-01T04:02:58;8.30;;;3.63;;
63770;SDS011;60282;43.862;18.430;2022-08-01T04:05:24;7.15;;;3.25;;
63770;SDS011;60282;43.862;18.430;2022-08-01T04:07:50;6.05;;;3.03;;
63770;SDS011;60282;43.862;18.430;2022-08-01T04:10:22;6.57;;;3.25;;
63770;SDS011;60282;43.862;18.430;2022-08-01T04:12:48;7.25;;;3.45;;
63770;SDS011;60282;43.862;18.430;2022-08-01T04:15:14;6.88;;;3.45;;
63770;SDS011;60282;43.862;18.430;2022-08-01T04:17:41;7.32;;;3.00;;
63770;SDS011;60282;43.862;18.430;2022-08-01T04:20:06;7.47;;;3.58;;
63770;SDS011;60282;43.862;18.430;2022-08-01T04:22:33;5.90;;;3.42;;
63770;SDS011;60282;43.862;18.430;2022-08-01T04:25:00;7.10;;;3.47;;
63770;SDS011;60282;43.862;18.430;2022-08-01T04:27:30;6.22;;;2.92;;
63770;SDS011;60282;43.862;18.430;2022-08-01T04:30:00;5.57;;;2.90;;
63770;SDS011;60282;43.862;18.430;2022-08-01T04:32:27;5.82;;;2.83;;
63770;SDS011;60282;43.862;18.430;2022-08-01T04:34:59;8.02;;;3.08;;
63770;SDS011;60282;43.862;18.430;2022-08-01T04:37:27;8.35;;;2.95;;
63770;SDS011;60282;43.862;18.430;2022-08-01T04:39:54;5.75;;;2.88;;
63770;SDS011;60282;43.862;18.430;2022-08-01T04:42:24;5.18;;;2.70;;
63770;SDS011;60282;43.862;18.430;2022-08-01T04:44:50;8.27;;;3.65;;
63770;SDS011;60282;43.862;18.430;2022-08-01T04:47:16;7.53;;;3.08;;
63770;SDS011;60282;43.862;18.430;2022-08-01T04:49:42;5.05;;;2.83;;
63770;SDS011;60282;43.862;18.430;2022-08-01T04:52:12;6.38;;;3.00;;
63770;SDS011;60282;43.862;18.430;2022-08-01T04:54:38;12.43;;;3.13;;
63770;SDS011;60282;43.862;18.430;2022-08-01T04:57:04;6.65;;;3.20;;
63770;SDS011;60282;43.862;18.430;2022-08-01T04:59:31;6.60;;;3.13;;
63770;SDS011;60282;43.862;18.430;2022-08-01T05:04:35;6.15;;;2.53;;
63770;SDS011;60282;43.862;18.430;2022-08-01T05:07:02;6.50;;;2.58;;
63770;SDS011;60282;43.862;18.430;2022-08-01T05:09:28;6.43;;;3.72;;
63770;SDS011;60282;43.862;18.430;2022-08-01T05:11:56;3.40;;;2.08;;
63770;SDS011;60282;43.862;18.430;2022-08-01T05:14:24;4.78;;;2.45;;
63770;SDS011;60282;43.862;18.430;2022-08-01T05:16:50;5.50;;;2.65;;
63770;SDS011;60282;43.862;18.430;2022-08-01T05:19:17;7.53;;;2.90;;
63770;SDS011;60282;43.862;18.430;2022-08-01T05:21:43;7.60;;;2.65;;
63770;SDS011;60282;43.862;18.430;2022-08-01T05:24:09;6.32;;;3.17;;
63770;SDS011;60282;43.862;18.430;2022-08-01T05:26:35;5.50;;;3.15;;
63770;SDS011;60282;43.862;18.430;2022-08-01T05:29:01;7.18;;;2.55;;
63770;SDS011;60282;43.862;18.430;2022-08-01T05:31:27;6.50;;;2.80;;
63770;SDS011;60282;43.862;18.430;2022-08-01T05:33:53;6.03;;;2.97;;
63770;SDS011;60282;43.862;18.430;2022-08-01T05:36:19;6.25;;;3.30;;
63770;SDS011;60282;43.862;18.430;2022-08-01T05:38:45;8.02;;;3.90;;
63770;SDS011;60282;43.862;18.430;2022-08-01T05:41:10;10.25;;;5.53;;
63770;SDS011;60282;43.862;18.430;2022-08-01T05:43:36;18.17;;;8.55;;
63770;SDS011;60282;43.862;18.430;2022-08-01T05:46:02;29.52;;;11.68;;
63770;SDS011;60282;43.862;18.430;2022-08-01T05:48:28;15.82;;;6.35;;
63770;SDS011;60282;43.862;18.430;2022-08-01T05:50:55;7.95;;;3.90;;
63770;SDS011;60282;43.862;18.430;2022-08-01T05:53:21;9.38;;;3.67;;
63770;SDS011;60282;43.862;18.430;2022-08-01T05:55:47;7.47;;;3.83;;
63770;SDS011;60282;43.862;18.430;2022-08-01T05:58:12;8.38;;;4.13;;
63770;SDS011;60282;43.862;18.430;2022-08-01T06:00:38;7.88;;;3.30;;
63770;SDS011;60282;43.862;18.430;2022-08-01T06:03:04;9.45;;;4.70;;
63770;SDS011;60282;43.862;18.430;2022-08-01T06:05:30;6.35;;;3.15;;
63770;SDS011;60282;43.862;18.430;2022-08-01T06:07:56;9.23;;;3.97;;
63770;SDS011;60282;43.862;18.430;2022-08-01T06:10:23;8.07;;;4.10;;
63770;SDS011;60282;43.862;18.430;2022-08-01T06:12:49;6.63;;;3.70;;
63770;SDS011;60282;43.862;18.430;2022-08-01T06:15:14;7.30;;;3.60;;
63770;SDS011;60282;43.862;18.430;2022-08-01T06:17:40;7.30;;;3.47;;
63770;SDS011;60282;43.862;18.430;2022-08-01T06:20:06;7.13;;;3.75;;
63770;SDS011;60282;43.862;18.430;2022-08-01T06:22:33;8.10;;;3.42;;
63770;SDS011;60282;43.862;18.430;2022-08-01T06:24:58;9.77;;;4.22;;
63770;SDS011;60282;43.862;18.430;2022-08-01T06:27:24;9.75;;;3.88;;
63770;SDS011;60282;43.862;18.430;2022-08-01T06:29:51;9.13;;;4.55;;
63770;SDS011;60282;43.862;18.430;2022-08-01T06:32:20;11.45;;;6.50;;
63770;SDS011;60282;43.862;18.430;2022-08-01T06:34:47;7.82;;;4.53;;
63770;SDS011;60282;43.862;18.430;2022-08-01T06:37:14;12.60;;;5.25;;
63770;SDS011;60282;43.862;18.430;2022-08-01T06:39:40;12.60;;;4.45;;
63770;SDS011;60282;43.862;18.430;2022-08-01T06:42:06;9.30;;;4.22;;
63770;SDS011;60282;43.862;18.430;2022-08-01T06:44:32;7.85;;;3.47;;
63770;SDS011;60282;43.862;18.430;2022-08-01T06:46:58;7.10;;;3.65;;
63770;SDS011;60282;43.862;18.430;2022-08-01T06:49:24;8.82;;;3.83;;
63770;SDS011;60282;43.862;18.430;2022-08-01T06:51:50;8.40;;;3.80;;
63770;SDS011;60282;43.862;18.430;2022-08-01T06:54:15;9.15;;;3.92;;
63770;SDS011;60282;43.862;18.430;2022-08-01T06:56:42;8.05;;;3.97;;
63770;SDS011;60282;43.862;18.430;2022-08-01T06:59:08;8.38;;;3.55;;
63770;SDS011;60282;43.862;18.430;2022-08-01T07:01:33;7.75;;;4.07;;
63770;SDS011;60282;43.862;18.430;2022-08-01T07:03:59;8.10;;;3.55;;
63770;SDS011;60282;43.862;18.430;2022-08-01T07:06:26;7.03;;;3.55;;
63770;SDS011;60282;43.862;18.430;2022-08-01T07:08:52;7.35;;;3.45;;
63770;SDS011;60282;43.862;18.430;2022-08-01T07:11:18;7.25;;;3.60;;
63770;SDS011;60282;43.862;18.430;2022-08-01T07:13:45;7.78;;;3.67;;
63770;SDS011;60282;43.862;18.430;2022-08-01T07:16:11;7.57;;;3.88;;
63770;SDS011;60282;43.862;18.430;2022-08-01T07:18:38;6.43;;;3.65;;
63770;SDS011;60282;43.862;18.430;2022-08-01T07:21:04;8.50;;;4.25;;
63770;SDS011;60282;43.862;18.430;2022-08-01T07:23:29;7.28;;;3.60;;
63770;SDS011;60282;43.862;18.430;2022-08-01T07:25:55;12.27;;;3.50;;
63770;SDS011;60282;43.862;18.430;2022-08-01T07:28:21;6.88;;;3.83;;
63770;SDS011;60282;43.862;18.430;2022-08-01T07:30:47;8.57;;;4.10;;
63770;SDS011;60282;43.862;18.430;2022-08-01T07:33:12;9.38;;;3.58;;
63770;SDS011;60282;43.862;18.430;2022-08-01T07:35:38;7.40;;;3.13;;
63770;SDS011;60282;43.862;18.430;2022-08-01T07:38:07;7.82;;;3.63;;
63770;SDS011;60282;43.862;18.430;2022-08-01T07:40:33;6.75;;;3.78;;
63770;SDS011;60282;43.862;18.430;2022-08-01T07:42:59;7.72;;;3.50;;
63770;SDS011;60282;43.862;18.430;2022-08-01T07:45:25;5.80;;;3.25;;
63770;SDS011;60282;43.862;18.430;2022-08-01T07:47:51;7.65;;;3.38;;
63770;SDS011;60282;43.862;18.430;2022-08-01T07:50:17;7.80;;;3.83;;
63770;SDS011;60282;43.862;18.430;2022-08-01T07:52:43;6.85;;;3.20;;
63770;SDS011;60282;43.862;18.430;2022-08-01T07:55:10;7.35;;;2.92;;
63770;SDS011;60282;43.862;18.430;2022-08-01T07:57:37;6.13;;;3.20;;
63770;SDS011;60282;43.862;18.430;2022-08-01T08:00:03;5.72;;;3.13;;
63770;SDS011;60282;43.862;18.430;2022-08-01T08:02:34;6.25;;;3.03;;
63770;SDS011;60282;43.862;18.430;2022-08-01T08:05:00;5.93;;;3.28;;
63770;SDS011;60282;43.862;18.430;2022-08-01T08:07:26;6.00;;;2.75;;
63770;SDS011;60282;43.862;18.430;2022-08-01T08:09:52;6.00;;;2.90;;
63770;SDS011;60282;43.862;18.430;2022-08-01T08:12:18;7.18;;;3.10;;
63770;SDS011;60282;43.862;18.430;2022-08-01T08:14:44;7.03;;;2.88;;
63770;SDS011;60282;43.862;18.430;2022-08-01T08:17:09;6.57;;;2.95;;
63770;SDS011;60282;43.862;18.430;2022-08-01T08:19:35;5.63;;;2.97;;
63770;SDS011;60282;43.862;18.430;2022-08-01T08:22:03;5.53;;;2.90;;
63770;SDS011;60282;43.862;18.430;2022-08-01T08:24:30;8.25;;;3.80;;
63770;SDS011;60282;43.862;18.430;2022-08-01T08:26:56;8.38;;;3.35;;
63770;SDS011;60282;43.862;18.430;2022-08-01T08:29:25;8.60;;;2.88;;
63770;SDS011;60282;43.862;18.430;2022-08-01T08:31:52;8.02;;;3.30;;
63770;SDS011;60282;43.862;18.430;2022-08-01T08:34:19;6.40;;;3.33;;
63770;SDS011;60282;43.862;18.430;2022-08-01T08:36:45;7.95;;;3.47;;
63770;SDS011;60282;43.862;18.430;2022-08-01T08:39:11;8.50;;;3.63;;
63770;SDS011;60282;43.862;18.430;2022-08-01T08:41:37;7.18;;;3.00;;
63770;SDS011;60282;43.862;18.430;2022-08-01T08:44:04;8.25;;;3.47;;
63770;SDS011;60282;43.862;18.430;2022-08-01T08:46:32;6.35;;;3.13;;
63770;SDS011;60282;43.862;18.430;2022-08-01T08:48:59;5.75;;;2.83;;
63770;SDS011;60282;43.862;18.430;2022-08-01T08:51:27;6.13;;;2.97;;
63770;SDS011;60282;43.862;18.430;2022-08-01T08:53:56;5.35;;;2.78;;
63770;SDS011;60282;43.862;18.430;2022-08-01T08:56:23;6.07;;;2.92;;
63770;SDS011;60282;43.862;18.430;2022-08-01T08:58:50;7.15;;;3.60;;
63770;SDS011;60282;43.862;18.430;2022-08-01T09:01:16;7.22;;;3.90;;
63770;SDS011;60282;43.862;18.430;2022-08-01T09:03:42;8.68;;;3.92;;
63770;SDS011;60282;43.862;18.430;2022-08-01T09:06:10;6.78;;;3.78;;
63770;SDS011;60282;43.862;18.430;2022-08-01T09:08:36;6.65;;;3.63;;
63770;SDS011;60282;43.862;18.430;2022-08-01T09:11:03;7.15;;;4.10;;
63770;SDS011;60282;43.862;18.430;2022-08-01T09:13:29;8.88;;;3.83;;
63770;SDS011;60282;43.862;18.430;2022-08-01T09:15:55;5.72;;;3.20;;
63770;SDS011;60282;43.862;18.430;2022-08-01T09:21:09;7.18;;;3.38;;
63770;SDS011;60282;43.862;18.430;2022-08-01T09:23:41;7.07;;;3.40;;
63770;SDS011;60282;43.862;18.430;2022-08-01T09:26:16;7.15;;;4.35;;
63770;SDS011;60282;43.862;18.430;2022-08-01T09:28:44;6.75;;;3.35;;
63770;SDS011;60282;43.862;18.430;2022-08-01T09:31:12;6.97;;;3.63;;
63770;SDS011;60282;43.862;18.430;2022-08-01T09:33:50;8.68;;;3.97;;
63770;SDS011;60282;43.862;18.430;2022-08-01T09:36:24;8.05;;;3.83;;
63770;SDS011;60282;43.862;18.430;2022-08-01T09:38:52;7.13;;;3.47;;
63770;SDS011;60282;43.862;18.430;2022-08-01T09:41:31;7.43;;;3.83;;
63770;SDS011;60282;43.862;18.430;2022-08-01T09:43:57;5.65;;;3.03;;
63770;SDS011;60282;43.862;18.430;2022-08-01T09:46:24;5.85;;;2.92;;
63770;SDS011;60282;43.862;18.430;2022-08-01T09:51:32;6.63;;;3.17;;
63770;SDS011;60282;43.862;18.430;2022-08-01T09:54:03;6.60;;;3.15;;
63770;SDS011;60282;43.862;18.430;2022-08-01T09:56:37;8.98;;;3.03;;
63770;SDS011;60282;43.862;18.430;2022-08-01T09:59:04;9.30;;;3.47;;
63770;SDS011;60282;43.862;18.430;2022-08-01T10:01:46;7.60;;;3.17;;
63770;SDS011;60282;43.862;18.430;2022-08-01T10:04:20;8.00;;;2.80;;
63770;SDS011;60282;43.862;18.430;2022-08-01T10:06:48;7.50;;;3.10;;
63770;SDS011;60282;43.862;18.430;2022-08-01T10:09:27;4.57;;;2.38;;
63770;SDS011;60282;43.862;18.430;2022-08-01T10:11:54;4.38;;;2.30;;
63770;SDS011;60282;43.862;18.430;2022-08-01T10:14:21;5.55;;;2.70;;
63770;SDS011;60282;43.862;18.430;2022-08-01T10:16:49;8.80;;;2.40;;
63770;SDS011;60282;43.862;18.430;2022-08-01T10:19:19;4.57;;;2.38;;
63770;SDS011;60282;43.862;18.430;2022-08-01T10:21:48;6.00;;;2.35;;
63770;SDS011;60282;43.862;18.430;2022-08-01T10:24:22;6.05;;;2.65;;
63770;SDS011;60282;43.862;18.430;2022-08-01T10:26:51;5.78;;;2.40;;
63770;SDS011;60282;43.862;18.430;2022-08-01T10:29:23;4.65;;;2.17;;
63770;SDS011;60282;43.862;18.430;2022-08-01T10:31:51;6.22;;;2.78;;
63770;SDS011;60282;43.862;18.430;2022-08-01T10:34:17;5.93;;;2.30;;
63770;SDS011;60282;43.862;18.430;2022-08-01T10:36:47;4.05;;;2.10;;
63770;SDS011;60282;43.862;18.430;2022-08-01T10:39:14;5.45;;;1.92;;
63770;SDS011;60282;43.862;18.430;2022-08-01T10:41:41;5.93;;;2.50;;
63770;SDS011;60282;43.862;18.430;2022-08-01T10:44:07;5.80;;;2.38;;
63770;SDS011;60282;43.862;18.430;2022-08-01T10:46:34;5.38;;;1.90;;
63770;SDS011;60282;43.862;18.430;2022-08-01T10:49:13;4.78;;;2.67;;
63770;SDS011;60282;43.862;18.430;2022-08-01T10:51:41;5.03;;;2.38;;
63770;SDS011;60282;43.862;18.430;2022-08-01T10:54:09;4.10;;;2.20;;
63770;SDS011;60282;43.862;18.430;2022-08-01T10:56:49;5.55;;;2.60;;
63770;SDS011;60282;43.862;18.430;2022-08-01T10:59:22;4.55;;;2.17;;
63770;SDS011;60282;43.862;18.430;2022-08-01T11:01:57;7.78;;;2.45;;
63770;SDS011;60282;43.862;18.430;2022-08-01T11:07:06;3.53;;;2.13;;
63770;SDS011;60282;43.862;18.430;2022-08-01T11:12:10;4.15;;;2.20;;
63770;SDS011;60282;43.862;18.430;2022-08-01T11:20:04;6.20;;;2.70;;
63770;SDS011;60282;43.862;18.430;2022-08-01T11:22:30;4.47;;;2.20;;
63770;SDS011;60282;43.862;18.430;2022-08-01T11:24:56;3.95;;;2.00;;
63770;SDS011;60282;43.862;18.430;2022-08-01T11:30:21;2.72;;;1.50;;
63770;SDS011;60282;43.862;18.430;2022-08-01T11:32:55;3.60;;;1.50;;
63770;SDS011;60282;43.862;18.430;2022-08-01T11:35:23;3.65;;;1.52;;
63770;SDS011;60282;43.862;18.430;2022-08-01T11:37:51;2.38;;;1.35;;
63770;SDS011;60282;43.862;18.430;2022-08-01T11:40:28;2.72;;;1.50;;
63770;SDS011;60282;43.862;18.430;2022-08-01T11:45:54;2.72;;;1.48;;
63770;SDS011;60282;43.862;18.430;2022-08-01T11:48:24;2.88;;;1.40;;
63770;SDS011;60282;43.862;18.430;2022-08-01T11:50:55;3.00;;;1.42;;
63770;SDS011;60282;43.862;18.430;2022-08-01T11:53:25;2.90;;;1.42;;
63770;SDS011;60282;43.862;18.430;2022-08-01T11:55:52;3.10;;;1.60;;
63770;SDS011;60282;43.862;18.430;2022-08-01T11:58:22;4.68;;;1.50;;
63770;SDS011;60282;43.862;18.430;2022-08-01T12:00:53;4.57;;;1.80;;
63770;SDS011;60282;43.862;18.430;2022-08-01T12:03:28;3.00;;;1.42;;
63770;SDS011;60282;43.862;18.430;2022-08-01T12:05:56;2.90;;;1.48;;
63770;SDS011;60282;43.862;18.430;2022-08-01T12:08:25;3.00;;;1.42;;
63770;SDS011;60282;43.862;18.430;2022-08-01T12:10:52;2.70;;;1.60;;
63770;SDS011;60282;43.862;18.430;2022-08-01T12:13:19;3.20;;;1.60;;
63770;SDS011;60282;43.862;18.430;2022-08-01T12:15:46;2.95;;;1.20;;
63770;SDS011;60282;43.862;18.430;2022-08-01T12:18:12;1.70;;;1.20;;
63770;SDS011;60282;43.862;18.430;2022-08-01T12:20:40;2.78;;;1.50;;
63770;SDS011;60282;43.862;18.430;2022-08-01T12:23:15;4.22;;;1.60;;
63770;SDS011;60282;43.862;18.430;2022-08-01T12:25:41;2.50;;;1.30;;
63770;SDS011;60282;43.862;18.430;2022-08-01T12:28:12;4.25;;;1.55;;
63770;SDS011;60282;43.862;18.430;2022-08-01T12:30:42;2.60;;;1.27;;
63770;SDS011;60282;43.862;18.430;2022-08-01T12:33:16;2.78;;;1.40;;
63770;SDS011;60282;43.862;18.430;2022-08-01T12:35:43;4.35;;;2.38;;
63770;SDS011;60282;43.862;18.430;2022-08-01T12:40:45;3.10;;;1.50;;
63770;SDS011;60282;43.862;18.430;2022-08-01T12:43:19;3.42;;;1.42;;
63770;SDS011;60282;43.862;18.430;2022-08-01T12:45:47;2.58;;;1.40;;
63770;SDS011;60282;43.862;18.430;2022-08-01T12:48:15;3.17;;;1.23;;
63770;SDS011;60282;43.862;18.430;2022-08-01T12:50:47;2.33;;;1.42;;
63770;SDS011;60282;43.862;18.430;2022-08-01T12:53:15;2.88;;;1.38;;
63770;SDS011;60282;43.862;18.430;2022-08-01T12:55:50;3.58;;;1.33;;
63770;SDS011;60282;43.862;18.430;2022-08-01T12:58:18;4.35;;;1.75;;
63770;SDS011;60282;43.862;18.430;2022-08-01T13:00:45;3.35;;;1.50;;
63770;SDS011;60282;43.862;18.430;2022-08-01T13:03:14;2.83;;;1.60;;
63770;SDS011;60282;43.862;18.430;2022-08-01T13:08:16;2.70;;;1.70;;
63770;SDS011;60282;43.862;18.430;2022-08-01T13:10:42;3.00;;;1.50;;
63770;SDS011;60282;43.862;18.430;2022-08-01T13:13:09;3.58;;;1.58;;
63770;SDS011;60282;43.862;18.430;2022-08-01T13:15:36;4.20;;;2.03;;
63770;SDS011;60282;43.862;18.430;2022-08-01T13:21:08;4.03;;;1.70;;
63770;SDS011;60282;43.862;18.430;2022-08-01T13:23:39;4.43;;;1.90;;
63770;SDS011;60282;43.862;18.430;2022-08-01T13:26:06;5.72;;;1.73;;
63770;SDS011;60282;43.862;18.430;2022-08-01T13:28:32;3.25;;;2.00;;
63770;SDS011;60282;43.862;18.430;2022-08-01T13:31:05;10.77;;;2.40;;
63770;SDS011;60282;43.862;18.430;2022-08-01T13:36:13;5.65;;;1.98;;
63770;SDS011;60282;43.862;18.430;2022-08-01T13:38:40;5.28;;;2.10;;
63770;SDS011;60282;43.862;18.430;2022-08-01T13:41:25;4.85;;;2.03;;
63770;SDS011;60282;43.862;18.430;2022-08-01T13:43:52;4.63;;;1.98;;
63770;SDS011;60282;43.862;18.430;2022-08-01T13:46:18;4.43;;;2.20;;
63770;SDS011;60282;43.862;18.430;2022-08-01T13:48:44;4.30;;;2.00;;
63770;SDS011;60282;43.862;18.430;2022-08-01T13:51:11;3.58;;;1.63;;
63770;SDS011;60282;43.862;18.430;2022-08-01T13:53:37;4.80;;;1.92;;
63770;SDS011;60282;43.862;18.430;2022-08-01T13:56:02;2.55;;;1.63;;
63770;SDS011;60282;43.862;18.430;2022-08-01T13:58:29;3.72;;;1.67;;
63770;SDS011;60282;43.862;18.430;2022-08-01T14:00:55;3.72;;;1.70;;
63770;SDS011;60282;43.862;18.430;2022-08-01T14:03:21;3.30;;;1.55;;
63770;SDS011;60282;43.862;18.430;2022-08-01T14:05:47;5.38;;;2.00;;
63770;SDS011;60282;43.862;18.430;2022-08-01T14:08:14;4.35;;;1.70;;
63770;SDS011;60282;43.862;18.430;2022-08-01T14:10:40;4.93;;;1.45;;
63770;SDS011;60282;43.862;18.430;2022-08-01T14:13:06;3.45;;;1.70;;
63770;SDS011;60282;43.862;18.430;2022-08-01T14:15:32;3.90;;;1.95;;
63770;SDS011;60282;43.862;18.430;2022-08-01T14:17:58;3.05;;;1.45;;
63770;SDS011;60282;43.862;18.430;2022-08-01T14:20:24;3.15;;;1.90;;
63770;SDS011;60282;43.862;18.430;2022-08-01T14:22:50;3.38;;;1.80;;
63770;SDS011;60282;43.862;18.430;2022-08-01T14:25:16;2.78;;;1.60;;
63770;SDS011;60282;43.862;18.430;2022-08-01T14:27:43;2.60;;;1.52;;
63770;SDS011;60282;43.862;18.430;2022-08-01T14:30:10;4.30;;;1.63;;
63770;SDS011;60282;43.862;18.430;2022-08-01T14:32:36;2.95;;;1.60;;
63770;SDS011;60282;43.862;18.430;2022-08-01T14:35:03;5.60;;;2.00;;
63770;SDS011;60282;43.862;18.430;2022-08-01T14:37:30;2.17;;;1.48;;
63770;SDS011;60282;43.862;18.430;2022-08-01T14:39:57;3.50;;;1.58;;
63770;SDS011;60282;43.862;18.430;2022-08-01T14:42:23;3.05;;;1.50;;
63770;SDS011;60282;43.862;18.430;2022-08-01T14:44:49;2.60;;;1.60;;
63770;SDS011;60282;43.862;18.430;2022-08-01T14:47:15;2.95;;;1.75;;
63770;SDS011;60282;43.862;18.430;2022-08-01T14:49:41;3.33;;;1.60;;
63770;SDS011;60282;43.862;18.430;2022-08-01T14:52:07;2.67;;;1.40;;
63770;SDS011;60282;43.862;18.430;2022-08-01T14:54:32;4.38;;;1.77;;
63770;SDS011;60282;43.862;18.430;2022-08-01T14:56:58;3.95;;;2.10;;
63770;SDS011;60282;43.862;18.430;2022-08-01T14:59:24;5.47;;;2.10;;
63770;SDS011;60282;43.862;18.430;2022-08-01T15:01:50;3.55;;;1.70;;
63770;SDS011;60282;43.862;18.430;2022-08-01T15:04:16;3.20;;;1.73;;
63770;SDS011;60282;43.862;18.430;2022-08-01T15:06:42;3.67;;;1.60;;
63770;SDS011;60282;43.862;18.430;2022-08-01T15:09:09;3.72;;;1.90;;
63770;SDS011;60282;43.862;18.430;2022-08-01T15:11:35;3.47;;;1.83;;
63770;SDS011;60282;43.862;18.430;2022-08-01T15:14:02;5.10;;;2.08;;
63770;SDS011;60282;43.862;18.430;2022-08-01T15:16:47;3.92;;;1.58;;
63770;SDS011;60282;43.862;18.430;2022-08-01T15:19:13;5.28;;;1.70;;
63770;SDS011;60282;43.862;18.430;2022-08-01T15:21:39;4.18;;;1.70;;
63770;SDS011;60282;43.862;18.430;2022-08-01T15:24:05;5.55;;;1.98;;
63770;SDS011;60282;43.862;18.430;2022-08-01T15:26:31;3.20;;;1.52;;
63770;SDS011;60282;43.862;18.430;2022-08-01T15:28:57;3.20;;;1.70;;
63770;SDS011;60282;43.862;18.430;2022-08-01T15:31:23;3.30;;;1.60;;
63770;SDS011;60282;43.862;18.430;2022-08-01T15:33:49;2.53;;;1.52;;
63770;SDS011;60282;43.862;18.430;2022-08-01T15:36:15;3.70;;;1.92;;